Time;durP1;ratioP1;P1;durP2;ratioP2;P2;SDS_P1;SDS_P2;PMS_P1;PMS_P2;Temp;Humidity;BMP_temperature;BMP_pressure;BME280_temperature;BME280_humidity;BME280_pressure;Samples;Min_cycle;Max_cycle;Signal;HPM_P1;HPM_P2
2023/06/09 00:00:26;;;;;;;9.85;7.07;;;;;;;-148.88;98.78;-17125.47;4973456;28;20054;-84
2023/06/09 00:02:52;;;;;;;11.35;7.45;;;;;;;-148.88;99.08;-17125.47;4973693;28;20033;-85
2023/06/09 00:05:18;;;;;;;9.77;6.75;;;;;;;-148.88;99.57;-17125.47;4975051;28;20034;-86
2023/06/09 00:07:47;;;;;;;12.43;6.90;;;;;;;-148.88;98.99;-17125.47;4973681;28;20031;-85
2023/06/09 00:10:14;;;;;;;10.20;6.72;;;;;;;-148.88;98.99;-17125.47;4973918;28;20037;-85
2023/06/09 00:12:40;;;;;;;10.75;6.85;;;;;;;-148.88;99.05;-17125.47;4974055;28;20050;-85
2023/06/09 00:15:08;;;;;;;10.10;6.22;;;;;;;-148.88;98.58;-17125.47;4973819;28;20584;-85
2023/06/09 00:17:34;;;;;;;10.98;7.10;;;;;;;-148.88;99.47;-17125.47;4977178;28;20461;-85
2023/06/09 00:20:03;;;;;;;9.95;6.25;;;;;;;-148.88;99.42;-17125.47;4977377;28;20054;-85
2023/06/09 00:22:28;;;;;;;10.52;6.95;;;;;;;-148.88;100.00;-17125.47;4976598;28;20022;-85
2023/06/09 00:24:54;;;;;;;11.98;7.22;;;;;;;-148.88;100.00;-17125.47;4978140;28;20023;-86
2023/06/09 00:27:20;;;;;;;15.80;6.82;;;;;;;-148.88;100.00;-17125.47;4979581;28;20022;-86
2023/06/09 00:29:45;;;;;;;13.68;6.50;;;;;;;-148.88;100.00;-17125.47;4977704;28;20018;-85
2023/06/09 00:32:11;;;;;;;13.02;6.93;;;;;;;-148.88;100.00;-17125.47;4979064;28;20105;-85
2023/06/09 00:34:37;;;;;;;12.65;6.65;;;;;;;-148.88;100.00;-17125.47;4977444;28;20111;-85
2023/06/09 00:37:03;;;;;;;11.00;6.40;;;;;;;-148.88;100.00;-17125.47;4978395;28;20061;-85
2023/06/09 00:39:28;;;;;;;13.55;7.20;;;;;;;-148.88;100.00;-17125.47;4978577;28;20077;-85
2023/06/09 00:41:54;;;;;;;12.45;6.60;;;;;;;-148.88;100.00;-17125.47;4976966;28;20396;-85
2023/06/09 00:44:19;;;;;;;13.25;6.65;;;;;;;-148.88;100.00;-17125.47;4978401;28;20031;-85
2023/06/09 00:46:45;;;;;;;12.65;6.90;;;;;;;-148.88;100.00;-17125.47;4977379;28;20041;-85
2023/06/09 00:49:10;;;;;;;15.35;6.90;;;;;;;-148.88;100.00;-17125.47;4976828;28;20031;-85
2023/06/09 00:51:39;;;;;;;13.43;6.82;;;;;;;-148.88;100.00;-17125.47;4979315;28;20425;-85
2023/06/09 00:54:05;;;;;;;13.10;6.57;;;;;;;-148.88;100.00;-17125.47;4978934;28;20082;-86
2023/06/09 00:56:32;;;;;;;12.38;6.88;;;;;;;-148.88;100.00;-17125.47;4977179;28;20022;-85
2023/06/09 00:58:58;;;;;;;13.75;6.70;;;;;;;-148.88;100.00;-17125.47;4977242;28;20031;-85
2023/06/09 01:01:23;;;;;;;13.15;7.03;;;;;;;-148.88;100.00;-17125.47;4975957;28;20081;-84
2023/06/09 01:03:49;;;;;;;14.60;6.72;;;;;;;-148.88;100.00;-17125.47;4975695;28;20030;-83
2023/06/09 01:06:42;;;;;;;11.57;6.15;;;;;;;-148.88;100.00;-17125.47;4977675;28;20105;-86
2023/06/09 01:09:27;;;;;;;15.50;6.72;;;;;;;-148.88;100.00;-17125.47;4976608;28;20117;-85
2023/06/09 01:12:14;;;;;;;10.32;5.90;;;;;;;-148.88;100.00;-17125.47;4976932;28;20125;-85
2023/06/09 01:14:51;;;;;;;11.43;6.35;;;;;;;-148.88;100.00;-17125.47;4978059;28;20034;-85
2023/06/09 01:17:19;;;;;;;13.10;5.93;;;;;;;-148.88;100.00;-17125.47;4977561;28;20405;-86
2023/06/09 01:19:51;;;;;;;13.00;5.95;;;;;;;-148.88;100.00;-17125.47;4978170;28;20065;-84
2023/06/09 01:22:26;;;;;;;12.20;5.93;;;;;;;-148.88;100.00;-17125.47;4976493;28;20041;-85
2023/06/09 01:25:23;;;;;;;14.32;6.72;;;;;;;-148.88;100.00;-17125.47;4977331;28;20037;-84
2023/06/09 01:27:50;;;;;;;9.82;5.97;;;;;;;-148.88;100.00;-17125.47;4975059;28;20113;-85
2023/06/09 01:30:18;;;;;;;13.07;7.13;;;;;;;-148.88;100.00;-17125.47;4976235;28;20027;-85
2023/06/09 01:32:45;;;;;;;14.77;6.93;;;;;;;-148.88;100.00;-17125.47;4976396;28;20138;-85
2023/06/09 01:35:11;;;;;;;13.98;6.50;;;;;;;-148.88;100.00;-17125.47;4976024;28;20030;-85
2023/06/09 01:37:37;;;;;;;14.18;7.22;;;;;;;-148.88;100.00;-17125.47;4976515;28;20509;-85
2023/06/09 01:40:03;;;;;;;11.27;7.30;;;;;;;-148.88;100.00;-17125.47;4976043;28;20066;-84
2023/06/09 01:42:29;;;;;;;14.80;7.78;;;;;;;-148.88;100.00;-17125.47;4975220;28;20145;-84
2023/06/09 01:44:54;;;;;;;15.18;7.63;;;;;;;-148.88;100.00;-17125.47;4975720;28;20569;-85
2023/06/09 01:47:21;;;;;;;14.02;7.28;;;;;;;-148.88;100.00;-17125.47;4977462;28;20030;-85
2023/06/09 01:49:56;;;;;;;13.82;6.57;;;;;;;-148.88;100.00;-17125.47;4977484;28;20095;-85
2023/06/09 01:52:27;;;;;;;15.25;7.38;;;;;;;-148.88;100.00;-17125.47;4976225;28;20022;-85
2023/06/09 01:54:56;;;;;;;16.10;7.18;;;;;;;-148.88;100.00;-17125.47;4976385;28;20050;-85
2023/06/09 01:57:32;;;;;;;15.68;6.80;;;;;;;-148.88;100.00;-17125.47;4977583;28;20082;-85
2023/06/09 02:00:03;;;;;;;13.25;6.47;;;;;;;-148.88;100.00;-17125.47;4976844;28;20074;-85
2023/06/09 02:02:32;;;;;;;13.00;6.50;;;;;;;-148.88;100.00;-17125.47;4976496;28;20030;-85
2023/06/09 02:04:59;;;;;;;15.40;7.10;;;;;;;-148.88;100.00;-17125.47;4976477;28;20019;-85
2023/06/09 02:07:25;;;;;;;11.20;6.38;;;;;;;-148.88;100.00;-17125.47;4975109;28;20035;-85
2023/06/09 02:09:51;;;;;;;17.15;6.57;;;;;;;-148.88;100.00;-17125.47;4975509;28;20030;-85
2023/06/09 02:12:17;;;;;;;12.95;7.05;;;;;;;-148.88;100.00;-17125.47;4976882;28;20038;-85
2023/06/09 02:14:42;;;;;;;15.43;7.15;;;;;;;-148.88;100.00;-17125.47;4975497;28;20022;-86
2023/06/09 02:17:08;;;;;;;11.73;6.45;;;;;;;-148.88;100.00;-17125.47;4975535;28;20026;-84
2023/06/09 02:19:37;;;;;;;13.32;7.32;;;;;;;-148.88;100.00;-17125.47;4974134;28;20109;-84
2023/06/09 02:22:03;;;;;;;12.07;6.47;;;;;;;-148.88;100.00;-17125.47;4975151;28;20019;-85
2023/06/09 02:24:28;;;;;;;14.32;6.25;;;;;;;-148.88;100.00;-17125.47;4975584;28;20022;-85
2023/06/09 02:26:56;;;;;;;12.98;6.40;;;;;;;-148.88;100.00;-17125.47;4975437;28;20037;-85
2023/06/09 02:29:23;;;;;;;13.20;6.63;;;;;;;-148.88;100.00;-17125.47;4975521;28;20488;-85
2023/06/09 02:31:49;;;;;;;9.45;6.30;;;;;;;-148.88;100.00;-17125.47;4976708;28;20026;-85
2023/06/09 02:34:15;;;;;;;11.90;5.97;;;;;;;-148.88;100.00;-17125.47;4980279;28;20027;-85
2023/06/09 02:36:42;;;;;;;15.82;6.45;;;;;;;-148.88;100.00;-17125.47;4976761;28;20137;-85
2023/06/09 02:39:08;;;;;;;12.38;7.13;;;;;;;-148.88;100.00;-17125.47;4975771;28;20045;-85
2023/06/09 02:41:34;;;;;;;12.90;6.75;;;;;;;-148.88;100.00;-17125.47;4977639;28;20022;-85
2023/06/09 02:43:59;;;;;;;16.42;7.38;;;;;;;-148.88;100.00;-17125.47;4975622;28;20019;-85
2023/06/09 02:46:25;;;;;;;13.60;8.05;;;;;;;-148.88;100.00;-17125.47;4977205;28;20221;-85
2023/06/09 02:48:50;;;;;;;13.55;7.50;;;;;;;-148.88;100.00;-17125.47;4976762;28;20033;-85
2023/06/09 02:51:16;;;;;;;13.57;7.88;;;;;;;-148.88;100.00;-17125.47;4975659;28;20022;-85
2023/06/09 02:53:41;;;;;;;11.50;7.75;;;;;;;-148.88;100.00;-17125.47;4976005;28;20081;-84
2023/06/09 02:56:07;;;;;;;14.82;8.68;;;;;;;-148.88;100.00;-17125.47;4973323;28;20034;-84
2023/06/09 02:58:32;;;;;;;13.85;8.02;;;;;;;-148.88;100.00;-17125.47;4974511;28;20093;-84
2023/06/09 03:00:58;;;;;;;14.85;8.82;;;;;;;-148.88;100.00;-17125.47;4973777;28;20018;-84
2023/06/09 03:03:25;;;;;;;15.65;8.88;;;;;;;-148.88;100.00;-17125.47;4975434;28;20074;-84
2023/06/09 03:05:52;;;;;;;14.82;9.18;;;;;;;-148.88;100.00;-17125.47;4973996;28;20045;-85
2023/06/09 03:08:17;;;;;;;12.45;8.50;;;;;;;-148.88;100.00;-17125.47;4973868;28;20490;-85
2023/06/09 03:10:43;;;;;;;12.77;8.40;;;;;;;-148.88;100.00;-17125.47;4975553;28;20035;-85
2023/06/09 03:13:08;;;;;;;14.65;8.95;;;;;;;-148.88;100.00;-17125.47;4973716;28;20062;-85
2023/06/09 03:15:33;;;;;;;14.40;8.93;;;;;;;-148.88;100.00;-17125.47;4974813;28;20121;-85
2023/06/09 03:17:59;;;;;;;11.05;8.18;;;;;;;-148.88;100.00;-17125.47;4977290;28;20019;-85
2023/06/09 03:20:24;;;;;;;12.45;8.48;;;;;;;-148.88;100.00;-17125.47;4974469;28;20026;-85
2023/06/09 03:22:54;;;;;;;14.10;8.85;;;;;;;-148.88;100.00;-17125.47;4973747;28;20030;-85
2023/06/09 03:25:20;;;;;;;14.88;9.05;;;;;;;-148.88;100.00;-17125.47;4974592;28;20381;-85
2023/06/09 03:27:45;;;;;;;13.27;8.80;;;;;;;-148.88;100.00;-17125.47;4974770;28;20027;-84
2023/06/09 03:30:11;;;;;;;15.02;9.25;;;;;;;-148.88;100.00;-17125.47;4974418;28;20371;-84
2023/06/09 03:32:36;;;;;;;13.65;8.82;;;;;;;-148.88;100.00;-17125.47;4973187;28;20113;-86
2023/06/09 03:35:02;;;;;;;14.95;9.43;;;;;;;-148.88;100.00;-17125.47;4972955;28;20063;-84
2023/06/09 03:37:27;;;;;;;15.43;9.70;;;;;;;-148.88;100.00;-17125.47;4973214;28;20023;-84
2023/06/09 03:39:53;;;;;;;14.10;9.35;;;;;;;-148.88;100.00;-17125.47;4976351;28;20442;-84
2023/06/09 03:42:18;;;;;;;13.38;9.00;;;;;;;-148.88;100.00;-17125.47;4973594;28;20492;-84
2023/06/09 03:44:43;;;;;;;12.80;9.55;;;;;;;-148.88;100.00;-17125.47;4975693;28;20110;-84
2023/06/09 03:47:09;;;;;;;15.75;10.13;;;;;;;-148.88;100.00;-17125.47;4974389;28;20103;-85
2023/06/09 03:49:35;;;;;;;15.48;9.52;;;;;;;-148.88;100.00;-17125.47;4975299;28;20457;-84
2023/06/09 03:52:00;;;;;;;13.65;9.85;;;;;;;-148.88;100.00;-17125.47;4982330;28;20101;-85
2023/06/09 03:54:26;;;;;;;13.30;9.73;;;;;;;-148.88;100.00;-17125.47;4983434;28;20118;-85
2023/06/09 03:56:52;;;;;;;14.75;10.15;;;;;;;-148.88;100.00;-17125.47;4981701;28;20026;-85
2023/06/09 03:59:17;;;;;;;16.70;10.18;;;;;;;-148.88;100.00;-17125.47;4982552;28;20030;-84
2023/06/09 04:01:43;;;;;;;15.40;9.77;;;;;;;-148.88;100.00;-17125.47;4980705;28;20030;-85
2023/06/09 04:04:09;;;;;;;13.05;9.02;;;;;;;-148.88;100.00;-17125.47;4981189;28;20019;-83
2023/06/09 04:06:35;;;;;;;15.07;9.57;;;;;;;-148.88;100.00;-17125.47;4984351;28;20041;-83
2023/06/09 04:09:02;;;;;;;12.05;9.55;;;;;;;-148.88;100.00;-17125.47;4981112;28;20054;-81
2023/06/09 04:11:29;;;;;;;13.95;9.35;;;;;;;-148.88;100.00;-17125.47;4979682;28;20485;-81
2023/06/09 04:13:55;;;;;;;13.07;9.60;;;;;;;-148.88;100.00;-17125.47;4978201;28;20034;-82
2023/06/09 04:16:20;;;;;;;13.75;10.15;;;;;;;-148.88;100.00;-17125.47;4978002;28;20019;-82
2023/06/09 04:18:46;;;;;;;14.55;10.35;;;;;;;-148.88;100.00;-17125.47;4984114;28;20508;-81
2023/06/09 04:21:13;;;;;;;16.42;10.48;;;;;;;-148.88;100.00;-17125.47;4981578;28;20030;-81
2023/06/09 04:23:38;;;;;;;14.30;10.15;;;;;;;-148.88;100.00;-17125.47;4984127;28;20058;-83
2023/06/09 04:26:08;;;;;;;15.23;10.10;;;;;;;-148.88;100.00;-17125.47;4984562;28;20111;-83
2023/06/09 04:28:33;;;;;;;14.85;10.15;;;;;;;-148.88;100.00;-17125.47;4985069;28;20065;-83
2023/06/09 04:31:00;;;;;;;12.93;9.70;;;;;;;-148.88;100.00;-17125.47;4985658;28;20027;-81
2023/06/09 04:33:26;;;;;;;17.02;10.63;;;;;;;-148.88;100.00;-17125.47;4982220;28;20046;-83
2023/06/09 04:35:54;;;;;;;12.60;9.85;;;;;;;-148.88;100.00;-17125.47;5000029;23;20110;-86
2023/06/09 04:38:20;;;;;;;14.63;11.00;;;;;;;-148.88;100.00;-17125.47;4976178;28;20160;-87
2023/06/09 04:40:49;;;;;;;14.25;10.55;;;;;;;-148.88;100.00;-17125.47;4977601;28;20034;-86
2023/06/09 04:43:14;;;;;;;13.88;10.25;;;;;;;-148.88;100.00;-17125.47;4977645;28;20023;-87
2023/06/09 04:45:41;;;;;;;14.43;10.90;;;;;;;-148.88;100.00;-17125.47;4976462;28;20046;-87
2023/06/09 04:48:07;;;;;;;17.45;11.02;;;;;;;-148.88;100.00;-17125.47;4977679;28;20080;-87
2023/06/09 04:50:33;;;;;;;15.25;11.07;;;;;;;-148.88;100.00;-17125.47;4976690;28;20109;-87
2023/06/09 04:52:59;;;;;;;13.40;10.63;;;;;;;-148.88;100.00;-17125.47;4976157;28;20528;-87
2023/06/09 04:55:29;;;;;;;16.08;11.23;;;;;;;-148.88;100.00;-17125.47;4977403;28;20030;-87
2023/06/09 05:01:33;;;;;;;13.57;10.82;;;;;;;-148.88;100.00;-17125.47;4940456;28;20094;-87
2023/06/09 05:04:00;;;;;;;16.52;11.55;;;;;;;-148.88;100.00;-17125.47;4957750;29;20019;-86
2023/06/09 05:06:25;;;;;;;14.65;11.30;;;;;;;-148.88;100.00;-17125.47;4958081;28;20394;-86
2023/06/09 05:08:51;;;;;;;18.67;10.98;;;;;;;-148.88;100.00;-17125.47;4956896;29;20019;-87
2023/06/09 05:11:17;;;;;;;17.50;10.98;;;;;;;-148.88;100.00;-17125.47;4957040;29;20034;-86
2023/06/09 05:13:42;;;;;;;17.88;10.82;;;;;;;-148.88;100.00;-17125.47;4957917;29;20053;-85
2023/06/09 05:16:07;;;;;;;16.05;11.13;;;;;;;-148.88;100.00;-17125.47;4957293;29;20066;-85
2023/06/09 05:18:33;;;;;;;17.02;12.32;;;;;;;-148.88;100.00;-17125.47;4958176;29;20020;-84
2023/06/09 05:20:58;;;;;;;13.32;11.40;;;;;;;-148.88;100.00;-17125.47;4958312;28;20027;-87
2023/06/09 05:23:23;;;;;;;16.15;11.68;;;;;;;-148.88;100.00;-17125.47;4957879;29;20583;-87
2023/06/09 05:25:49;;;;;;;15.38;11.80;;;;;;;-148.88;100.00;-17125.47;4959602;28;20023;-87
2023/06/09 05:28:17;;;;;;;15.73;11.18;;;;;;;-148.88;100.00;-17125.47;4959235;28;20023;-86
2023/06/09 05:30:43;;;;;;;16.45;12.55;;;;;;;-148.88;100.00;-17125.47;4958369;28;20031;-87
2023/06/09 05:33:08;;;;;;;15.80;11.50;;;;;;;-148.88;100.00;-17125.47;4956764;29;20035;-87
2023/06/09 05:35:33;;;;;;;17.60;13.02;;;;;;;-148.88;100.00;-17125.47;4957433;28;20031;-87
2023/06/09 05:37:59;;;;;;;15.63;10.73;;;;;;;-148.88;100.00;-17125.47;4956277;29;20027;-87
2023/06/09 05:40:27;;;;;;;15.73;11.70;;;;;;;-148.88;100.00;-17125.47;4957316;29;20030;-87
2023/06/09 05:42:55;;;;;;;13.57;11.18;;;;;;;-148.88;100.00;-17125.47;4955907;29;20027;-87
2023/06/09 05:45:20;;;;;;;15.15;11.85;;;;;;;-148.88;100.00;-17125.47;4957101;28;20033;-87
2023/06/09 05:47:46;;;;;;;15.77;12.68;;;;;;;-148.88;100.00;-17125.47;4957252;29;20394;-87
2023/06/09 05:50:11;;;;;;;15.23;11.98;;;;;;;-148.88;100.00;-17125.47;4957195;28;20102;-87
2023/06/09 05:52:37;;;;;;;15.40;11.93;;;;;;;-148.88;100.00;-17125.47;4956096;29;20054;-87
2023/06/09 05:55:02;;;;;;;15.50;12.35;;;;;;;-148.88;100.00;-17125.47;4957482;29;20034;-87
2023/06/09 05:57:29;;;;;;;14.50;12.38;;;;;;;-148.88;100.00;-17125.47;4957121;29;20046;-87
2023/06/09 05:59:56;;;;;;;16.38;12.25;;;;;;;-148.88;100.00;-17125.47;4956477;29;20035;-85
2023/06/09 06:02:22;;;;;;;16.95;12.30;;;;;;;-148.88;100.00;-17125.47;4956977;28;20042;-85
2023/06/09 06:04:47;;;;;;;13.75;12.32;;;;;;;-148.88;100.00;-17125.47;4955320;29;20398;-86
2023/06/09 06:07:15;;;;;;;16.88;13.00;;;;;;;-148.88;100.00;-17125.47;4955633;29;20055;-85
2023/06/09 06:09:40;;;;;;;18.20;12.38;;;;;;;-148.88;100.00;-17125.47;4956687;28;20027;-86
2023/06/09 06:12:06;;;;;;;16.98;12.93;;;;;;;-148.88;100.00;-17125.47;4955551;28;20034;-82
2023/06/09 06:14:32;;;;;;;17.60;13.55;;;;;;;-148.88;100.00;-17125.47;4973997;28;20102;-86
2023/06/09 06:16:57;;;;;;;14.90;12.25;;;;;;;-148.88;100.00;-17125.47;4974709;28;20113;-85
2023/06/09 06:19:23;;;;;;;16.33;12.70;;;;;;;-148.88;100.00;-17125.47;4974332;28;20081;-85
2023/06/09 06:21:48;;;;;;;16.23;12.27;;;;;;;-148.88;100.00;-17125.47;4974684;28;20402;-85
2023/06/09 06:24:14;;;;;;;17.42;12.63;;;;;;;-148.88;100.00;-17125.47;4975457;28;20403;-85
2023/06/09 06:26:39;;;;;;;16.95;12.93;;;;;;;-148.88;100.00;-17125.47;4973621;28;20022;-87
2023/06/09 06:29:05;;;;;;;14.75;13.07;;;;;;;-148.88;100.00;-17125.47;4974418;28;20030;-86
2023/06/09 06:31:30;;;;;;;14.45;12.95;;;;;;;-148.88;100.00;-17125.47;4975360;28;20503;-87
2023/06/09 06:34:00;;;;;;;15.45;13.13;;;;;;;-148.88;100.00;-17125.47;4975630;28;20022;-86
2023/06/09 06:36:28;;;;;;;14.73;12.60;;;;;;;-148.88;100.00;-17125.47;4975098;28;20030;-86
2023/06/09 06:38:53;;;;;;;16.48;12.93;;;;;;;-148.88;100.00;-17125.47;4975413;28;20023;-87
2023/06/09 06:41:19;;;;;;;14.50;12.52;;;;;;;-148.88;100.00;-17125.47;4976081;28;20034;-86
2023/06/09 06:43:45;;;;;;;14.75;12.70;;;;;;;-148.88;100.00;-17125.47;4975596;28;20074;-86
2023/06/09 06:46:11;;;;;;;15.73;12.82;;;;;;;-148.88;100.00;-17125.47;4974735;28;20388;-86
2023/06/09 06:48:38;;;;;;;15.50;11.57;;;;;;;-148.88;100.00;-17125.47;4973663;28;20042;-86
2023/06/09 06:51:06;;;;;;;13.40;11.02;;;;;;;-148.88;100.00;-17125.47;4975971;28;20026;-86
2023/06/09 06:53:32;;;;;;;14.40;10.85;;;;;;;-148.88;100.00;-17125.47;4976903;28;20473;-87
2023/06/09 06:55:57;;;;;;;12.38;10.02;;;;;;;-148.88;100.00;-17125.47;4974197;28;20022;-86
2023/06/09 06:58:23;;;;;;;12.77;10.00;;;;;;;-148.88;100.00;-17125.47;4973939;28;20470;-85
2023/06/09 07:00:48;;;;;;;13.35;9.73;;;;;;;-148.88;99.51;-17125.47;4975978;28;20034;-86
2023/06/09 07:03:16;;;;;;;12.45;10.02;;;;;;;-148.88;98.20;-17125.47;4976208;28;20062;-85
2023/06/09 07:05:41;;;;;;;14.57;9.85;;;;;;;-148.88;97.28;-17125.47;4976006;28;20474;-85
2023/06/09 07:08:07;;;;;;;14.48;10.23;;;;;;;-148.88;98.33;-17125.47;4975767;28;20057;-87
2023/06/09 07:10:38;;;;;;;11.93;8.95;;;;;;;-148.88;94.91;-17125.47;4976585;28;20075;-88
2023/06/09 07:13:03;;;;;;;13.20;9.65;;;;;;;-148.88;95.37;-17125.47;4976042;28;20411;-87
2023/06/09 07:15:29;;;;;;;10.30;9.20;;;;;;;-148.88;94.90;-17125.47;4974323;28;20481;-87
2023/06/09 07:17:55;;;;;;;12.32;9.60;;;;;;;-148.88;97.00;-17125.47;4974115;28;20055;-88
2023/06/09 07:20:23;;;;;;;12.57;9.98;;;;;;;-148.88;96.11;-17125.47;4975623;28;20026;-87
2023/06/09 07:22:51;;;;;;;11.73;9.27;;;;;;;-148.88;96.03;-17125.47;4974856;28;20037;-86
2023/06/09 07:25:17;;;;;;;10.20;9.05;;;;;;;-148.88;95.13;-17125.47;4973760;28;20027;-86
2023/06/09 07:27:43;;;;;;;14.00;9.18;;;;;;;-148.88;92.92;-17125.47;4973416;28;20023;-85
2023/06/09 07:30:09;;;;;;;10.98;9.13;;;;;;;-148.88;92.65;-17125.47;4973614;28;20041;-85
2023/06/09 07:32:35;;;;;;;11.10;8.60;;;;;;;-148.88;94.16;-17125.47;4975333;28;20077;-86
2023/06/09 07:35:00;;;;;;;11.27;8.95;;;;;;;-148.88;94.03;-17125.47;4975482;28;20030;-85
2023/06/09 07:37:26;;;;;;;9.55;8.32;;;;;;;-148.88;91.97;-17125.47;4975181;28;20027;-84
2023/06/09 07:39:51;;;;;;;11.23;8.70;;;;;;;-148.88;90.33;-17125.47;4975585;28;20101;-84
2023/06/09 07:42:16;;;;;;;9.68;7.85;;;;;;;-148.88;91.17;-17125.47;4974821;28;20027;-83
2023/06/09 07:44:42;;;;;;;10.52;8.48;;;;;;;-148.88;90.99;-17125.47;4974385;28;20065;-85
2023/06/09 07:47:07;;;;;;;11.48;8.40;;;;;;;-148.88;90.01;-17125.47;4974881;28;20121;-86
2023/06/09 07:49:32;;;;;;;12.45;9.13;;;;;;;-148.88;89.56;-17125.47;4975503;28;20097;-86
2023/06/09 07:51:59;;;;;;;10.63;7.97;;;;;;;-148.88;89.53;-17125.47;4975120;28;20029;-84
2023/06/09 07:54:24;;;;;;;11.23;8.32;;;;;;;-148.88;88.00;-17125.47;4975558;28;20031;-83
2023/06/09 07:56:50;;;;;;;9.88;8.48;;;;;;;-148.88;86.08;-17125.47;4975327;28;20034;-83
2023/06/09 07:59:19;;;;;;;10.40;8.27;;;;;;;-148.88;88.52;-17125.47;4975151;28;20029;-82
2023/06/09 08:01:45;;;;;;;11.93;8.25;;;;;;;-148.88;83.64;-17125.47;4975740;28;20133;-83
2023/06/09 08:04:10;;;;;;;9.05;8.15;;;;;;;-148.88;83.62;-17125.47;4975275;28;20545;-83
2023/06/09 08:06:36;;;;;;;9.35;8.30;;;;;;;-148.88;81.42;-17125.47;4973461;28;20031;-83
2023/06/09 08:09:01;;;;;;;14.13;7.75;;;;;;;-148.88;84.68;-17125.47;4975187;28;20033;-83
2023/06/09 08:11:26;;;;;;;10.30;8.43;;;;;;;-148.88;82.12;-17125.47;4974840;28;20027;-82
2023/06/09 08:13:52;;;;;;;11.05;7.80;;;;;;;-148.88;81.04;-17125.47;4973819;28;20077;-83
2023/06/09 08:16:18;;;;;;;8.52;6.85;;;;;;;-148.88;83.58;-17125.47;4973814;28;20076;-82
2023/06/09 08:18:43;;;;;;;9.57;7.43;;;;;;;-148.88;79.34;-17125.47;4973604;28;20477;-83
2023/06/09 08:21:08;;;;;;;8.93;7.20;;;;;;;-148.88;77.56;-17125.47;4975564;28;20050;-83
2023/06/09 08:23:34;;;;;;;8.77;7.50;;;;;;;-148.88;79.08;-17125.47;4975236;28;20019;-83
2023/06/09 08:26:00;;;;;;;9.27;7.75;;;;;;;-148.88;80.74;-17125.47;4974593;28;20023;-83
2023/06/09 08:28:25;;;;;;;10.27;7.78;;;;;;;-148.88;79.71;-17125.47;4975118;28;20023;-83
2023/06/09 08:30:51;;;;;;;11.18;7.80;;;;;;;-148.88;83.50;-17125.47;4975308;28;20033;-83
2023/06/09 08:33:16;;;;;;;9.98;7.43;;;;;;;-148.88;79.68;-17125.47;4975958;28;20458;-82
2023/06/09 08:35:41;;;;;;;9.20;7.68;;;;;;;-148.88;80.09;-17125.47;4974648;28;20061;-83
2023/06/09 08:38:07;;;;;;;9.52;7.28;;;;;;;-148.88;75.38;-17125.47;4977974;28;20027;-82
2023/06/09 08:40:34;;;;;;;8.68;7.68;;;;;;;-148.88;78.02;-17125.47;4978919;28;20023;-82
2023/06/09 08:43:02;;;;;;;10.35;7.53;;;;;;;-148.88;74.62;-17125.47;4977078;28;20034;-84
2023/06/09 08:45:33;;;;;;;9.25;7.60;;;;;;;-148.88;76.18;-17125.47;4979247;28;20037;-83
2023/06/09 08:48:00;;;;;;;9.27;8.00;;;;;;;-148.88;76.29;-17125.47;4979311;28;20023;-83
2023/06/09 08:50:31;;;;;;;10.43;7.43;;;;;;;-148.88;72.38;-17125.47;4978866;28;20445;-82
2023/06/09 08:52:57;;;;;;;9.52;7.63;;;;;;;-148.88;71.39;-17125.47;4977981;28;20031;-83
2023/06/09 08:55:23;;;;;;;9.68;7.90;;;;;;;-148.88;77.58;-17125.47;4978362;28;20018;-83
2023/06/09 08:57:50;;;;;;;10.35;7.70;;;;;;;-148.88;74.16;-17125.47;4978585;28;20508;-82
2023/06/09 09:00:16;;;;;;;10.48;7.93;;;;;;;-148.88;72.94;-17125.47;4977977;28;20026;-83
2023/06/09 09:02:43;;;;;;;9.63;7.72;;;;;;;-148.88;73.74;-17125.47;4979072;28;20085;-83
2023/06/09 09:05:09;;;;;;;10.00;7.85;;;;;;;-148.88;72.98;-17125.47;4977589;28;20113;-83
2023/06/09 09:07:35;;;;;;;12.00;8.68;;;;;;;-148.88;72.20;-17125.47;4978094;28;20034;-82
2023/06/09 09:10:01;;;;;;;11.77;9.10;;;;;;;-148.88;74.73;-17125.47;4976985;28;20026;-82
2023/06/09 09:12:26;;;;;;;10.25;9.13;;;;;;;-148.88;76.22;-17125.47;4978586;28;20106;-82
2023/06/09 09:14:52;;;;;;;11.80;9.73;;;;;;;-148.88;73.42;-17125.47;4976557;28;20029;-82
2023/06/09 09:17:17;;;;;;;10.95;9.63;;;;;;;-148.88;77.84;-17125.47;4976928;28;20022;-82
2023/06/09 09:19:48;;;;;;;11.00;9.85;;;;;;;-148.88;73.07;-17125.47;4977138;28;20126;-83
2023/06/09 09:22:14;;;;;;;13.38;9.90;;;;;;;-148.88;75.16;-17125.47;4976810;28;20465;-83
2023/06/09 09:24:46;;;;;;;13.98;10.77;;;;;;;-148.88;75.04;-17125.47;4978101;28;20543;-83
2023/06/09 09:27:20;;;;;;;12.98;11.45;;;;;;;-148.88;74.66;-17125.47;4978089;28;20086;-83
2023/06/09 09:29:46;;;;;;;15.07;11.02;;;;;;;-148.88;74.47;-17125.47;4978639;28;20058;-83
2023/06/09 09:32:12;;;;;;;11.73;9.40;;;;;;;-148.88;79.31;-17125.47;4978196;28;20081;-83
2023/06/09 09:34:41;;;;;;;12.20;9.52;;;;;;;-148.88;78.15;-17125.47;4976942;28;20608;-84
2023/06/09 09:37:16;;;;;;;10.57;9.00;;;;;;;-148.88;75.63;-17125.47;4976440;28;20539;-83
2023/06/09 09:39:52;;;;;;;11.38;9.75;;;;;;;-148.88;70.46;-17125.47;4976486;28;20026;-83
2023/06/09 09:42:19;;;;;;;12.02;9.23;;;;;;;-148.88;73.91;-17125.47;4976528;28;20026;-83
2023/06/09 09:44:51;;;;;;;11.48;8.38;;;;;;;-148.88;67.88;-17125.47;4977282;28;20019;-82
2023/06/09 09:47:18;;;;;;;11.40;8.17;;;;;;;-148.88;68.61;-17125.47;4976533;28;20158;-83
2023/06/09 09:49:51;;;;;;;13.68;8.98;;;;;;;-148.88;65.57;-17125.47;4974543;28;20113;-83
2023/06/09 09:52:30;;;;;;;10.98;8.23;;;;;;;-148.88;68.12;-17125.47;4977074;28;20109;-83
2023/06/09 09:54:59;;;;;;;10.52;7.80;;;;;;;-148.88;66.67;-17125.47;4975918;28;20030;-83
2023/06/09 09:57:30;;;;;;;9.10;7.20;;;;;;;-148.88;64.37;-17125.47;4976741;28;20035;-83
2023/06/09 09:59:58;;;;;;;11.27;7.90;;;;;;;-148.88;60.79;-17125.47;4976859;28;20031;-83
2023/06/09 10:02:25;;;;;;;8.23;7.30;;;;;;;-148.88;61.77;-17125.47;4975083;28;20018;-83
2023/06/09 10:04:52;;;;;;;10.65;7.97;;;;;;;-148.88;60.40;-17125.47;4976222;28;20042;-83
2023/06/09 10:07:21;;;;;;;9.35;7.63;;;;;;;-148.88;58.31;-17125.47;4976287;28;20019;-84
2023/06/09 10:09:52;;;;;;;8.63;7.72;;;;;;;-148.88;60.37;-17125.47;4975186;28;20118;-83
2023/06/09 10:12:19;;;;;;;14.23;7.70;;;;;;;-148.88;58.59;-17125.47;4976221;28;20033;-83
2023/06/09 10:14:46;;;;;;;8.93;7.78;;;;;;;-148.88;60.94;-17125.47;4976418;28;20023;-83
2023/06/09 10:17:12;;;;;;;9.77;7.40;;;;;;;-148.88;60.07;-17125.47;4974765;28;20023;-83
2023/06/09 10:19:39;;;;;;;9.18;7.35;;;;;;;-148.88;58.24;-17125.47;4976336;28;20038;-83
2023/06/09 10:22:05;;;;;;;9.95;7.30;;;;;;;-148.88;55.44;-17125.47;4976422;28;20030;-83
2023/06/09 10:24:33;;;;;;;9.30;6.65;;;;;;;-148.88;55.42;-17125.47;4975425;28;20521;-83
2023/06/09 10:26:59;;;;;;;8.80;6.78;;;;;;;-148.88;57.21;-17125.47;4974861;28;20027;-82
2023/06/09 10:29:25;;;;;;;11.18;7.50;;;;;;;-148.88;59.24;-17125.47;4974798;28;20023;-83
2023/06/09 10:31:53;;;;;;;9.20;6.18;;;;;;;-148.88;56.33;-17125.47;4975583;28;20046;-82
2023/06/09 10:34:19;;;;;;;11.65;7.05;;;;;;;-148.88;54.04;-17125.47;4976400;28;20026;-83
2023/06/09 10:36:45;;;;;;;8.35;6.07;;;;;;;-148.88;55.33;-17125.47;4976090;28;20030;-83
2023/06/09 10:39:16;;;;;;;8.40;6.63;;;;;;;-148.88;54.27;-17125.47;4976406;28;20504;-82
2023/06/09 10:41:52;;;;;;;9.80;6.65;;;;;;;-148.88;51.78;-17125.47;4976141;28;20026;-82
2023/06/09 10:44:29;;;;;;;8.02;6.60;;;;;;;-148.88;53.15;-17125.47;4976490;28;20031;-82
2023/06/09 10:47:00;;;;;;;9.38;6.25;;;;;;;-148.88;53.41;-17125.47;4974979;28;20449;-82
2023/06/09 10:49:25;;;;;;;7.88;5.82;;;;;;;-148.88;48.67;-17125.47;4976269;28;20030;-82
2023/06/09 10:51:51;;;;;;;13.98;5.35;;;;;;;-148.88;47.07;-17125.47;4976103;28;20034;-82
2023/06/09 10:54:18;;;;;;;8.10;5.82;;;;;;;-148.88;49.76;-17125.47;4975880;28;20105;-82
2023/06/09 10:56:52;;;;;;;10.68;5.25;;;;;;;-148.88;47.03;-17125.47;4975463;28;20095;-84
2023/06/09 10:59:23;;;;;;;9.50;5.72;;;;;;;-148.88;47.83;-17125.47;4975895;28;20023;-83